sensor_id;sensor_type;location;lat;lon;timestamp;P1;durP1;ratioP1;P2;durP2;ratioP2
44446;SDS011;30152;52.066;5.358;2022-09-09T06:48:41;12.27;;;3.90;;
44446;SDS011;30152;52.066;5.358;2022-09-09T06:51:08;12.15;;;3.55;;
44446;SDS011;30152;52.066;5.358;2022-09-09T06:53:35;11.00;;;3.75;;
44446;SDS011;30152;52.066;5.358;2022-09-09T06:56:02;8.98;;;3.10;;
44446;SDS011;30152;52.066;5.358;2022-09-09T06:58:28;9.68;;;3.53;;
44446;SDS011;30152;52.066;5.358;2022-09-09T07:01:04;13.65;;;3.30;;
44446;SDS011;30152;52.066;5.358;2022-09-09T07:03:30;9.70;;;3.25;;
44446;SDS011;30152;52.066;5.358;2022-09-09T07:05:56;11.02;;;3.20;;
44446;SDS011;30152;52.066;5.358;2022-09-09T07:08:23;10.65;;;2.97;;
44446;SDS011;30152;52.066;5.358;2022-09-09T07:10:49;11.30;;;3.00;;
44446;SDS011;30152;52.066;5.358;2022-09-09T07:13:16;12.13;;;3.22;;
44446;SDS011;30152;52.066;5.358;2022-09-09T07:15:45;9.07;;;2.85;;
44446;SDS011;30152;52.066;5.358;2022-09-09T07:18:11;8.48;;;2.83;;
44446;SDS011;30152;52.066;5.358;2022-09-09T07:20:37;13.02;;;2.97;;
44446;SDS011;30152;52.066;5.358;2022-09-09T07:23:03;11.55;;;3.42;;
44446;SDS011;30152;52.066;5.358;2022-09-09T07:25:29;13.55;;;3.08;;
44446;SDS011;30152;52.066;5.358;2022-09-09T07:27:55;15.30;;;3.70;;
44446;SDS011;30152;52.066;5.358;2022-09-09T07:30:21;10.32;;;3.40;;
44446;SDS011;30152;52.066;5.358;2022-09-09T07:32:47;11.40;;;3.45;;
44446;SDS011;30152;52.066;5.358;2022-09-09T07:35:13;13.55;;;4.03;;
44446;SDS011;30152;52.066;5.358;2022-09-09T07:37:39;11.57;;;3.45;;
44446;SDS011;30152;52.066;5.358;2022-09-09T07:40:06;9.50;;;3.60;;
44446;SDS011;30152;52.066;5.358;2022-09-09T07:42:32;12.55;;;3.70;;
44446;SDS011;30152;52.066;5.358;2022-09-09T07:44:58;13.88;;;4.28;;
44446;SDS011;30152;52.066;5.358;2022-09-09T07:47:24;14.50;;;3.50;;
44446;SDS011;30152;52.066;5.358;2022-09-09T07:49:50;14.60;;;3.45;;
44446;SDS011;30152;52.066;5.358;2022-09-09T07:52:16;10.15;;;3.42;;
44446;SDS011;30152;52.066;5.358;2022-09-09T07:54:42;12.73;;;3.78;;
44446;SDS011;30152;52.066;5.358;2022-09-09T07:57:10;11.60;;;3.22;;
44446;SDS011;30152;52.066;5.358;2022-09-09T07:59:37;14.00;;;3.47;;
44446;SDS011;30152;52.066;5.358;2022-09-09T08:02:03;12.50;;;3.78;;
44446;SDS011;30152;52.066;5.358;2022-09-09T08:04:29;10.13;;;2.60;;
44446;SDS011;30152;52.066;5.358;2022-09-09T08:06:56;11.23;;;2.83;;
44446;SDS011;30152;52.066;5.358;2022-09-09T08:09:22;13.50;;;3.42;;
44446;SDS011;30152;52.066;5.358;2022-09-09T08:11:57;14.27;;;3.10;;
44446;SDS011;30152;52.066;5.358;2022-09-09T08:14:23;14.60;;;3.28;;
44446;SDS011;30152;52.066;5.358;2022-09-09T08:16:49;14.77;;;3.78;;
44446;SDS011;30152;52.066;5.358;2022-09-09T08:19:15;13.60;;;3.63;;
44446;SDS011;30152;52.066;5.358;2022-09-09T08:21:42;12.27;;;3.88;;
44446;SDS011;30152;52.066;5.358;2022-09-09T08:24:09;10.13;;;3.28;;
44446;SDS011;30152;52.066;5.358;2022-09-09T08:26:39;17.98;;;3.33;;
44446;SDS011;30152;52.066;5.358;2022-09-09T08:29:06;10.45;;;3.15;;
44446;SDS011;30152;52.066;5.358;2022-09-09T08:31:34;13.43;;;3.35;;
44446;SDS011;30152;52.066;5.358;2022-09-09T08:34:02;14.52;;;3.03;;
44446;SDS011;30152;52.066;5.358;2022-09-09T08:36:29;15.77;;;3.20;;
44446;SDS011;30152;52.066;5.358;2022-09-09T08:38:56;9.40;;;2.75;;
44446;SDS011;30152;52.066;5.358;2022-09-09T08:43:48;12.88;;;3.17;;
44446;SDS011;30152;52.066;5.358;2022-09-09T08:46:19;12.02;;;3.13;;
44446;SDS011;30152;52.066;5.358;2022-09-09T08:51:39;13.98;;;3.58;;
44446;SDS011;30152;52.066;5.358;2022-09-09T08:54:05;11.85;;;2.70;;
44446;SDS011;30152;52.066;5.358;2022-09-09T08:56:31;10.98;;;2.60;;
44446;SDS011;30152;52.066;5.358;2022-09-09T08:58:59;12.60;;;2.63;;
44446;SDS011;30152;52.066;5.358;2022-09-09T09:09:06;16.05;;;3.25;;
44446;SDS011;30152;52.066;5.358;2022-09-09T09:11:55;16.83;;;3.78;;
44446;SDS011;30152;52.066;5.358;2022-09-09T09:14:21;12.07;;;3.08;;
44446;SDS011;30152;52.066;5.358;2022-09-09T09:16:56;19.00;;;4.35;;
44446;SDS011;30152;52.066;5.358;2022-09-09T09:19:23;12.57;;;3.08;;
44446;SDS011;30152;52.066;5.358;2022-09-09T09:22:11;14.40;;;2.88;;
44446;SDS011;30152;52.066;5.358;2022-09-09T09:24:53;17.10;;;3.70;;
44446;SDS011;30152;52.066;5.358;2022-09-09T09:29:46;10.30;;;2.72;;
44446;SDS011;30152;52.066;5.358;2022-09-09T09:32:15;16.70;;;3.78;;
44446;SDS011;30152;52.066;5.358;2022-09-09T09:34:42;11.30;;;2.70;;
44446;SDS011;30152;52.066;5.358;2022-09-09T09:37:17;17.42;;;3.28;;
44446;SDS011;30152;52.066;5.358;2022-09-09T09:39:48;19.48;;;3.30;;
44446;SDS011;30152;52.066;5.358;2022-09-09T09:42:18;14.00;;;3.33;;
44446;SDS011;30152;52.066;5.358;2022-09-09T09:44:44;10.45;;;2.35;;
44446;SDS011;30152;52.066;5.358;2022-09-09T09:47:14;11.45;;;2.80;;
44446;SDS011;30152;52.066;5.358;2022-09-09T09:50:02;13.98;;;3.08;;
44446;SDS011;30152;52.066;5.358;2022-09-09T09:52:30;15.52;;;3.00;;
44446;SDS011;30152;52.066;5.358;2022-09-09T09:54:57;18.98;;;3.50;;
44446;SDS011;30152;52.066;5.358;2022-09-09T09:57:28;12.10;;;2.65;;
44446;SDS011;30152;52.066;5.358;2022-09-09T10:00:03;13.80;;;3.42;;
44446;SDS011;30152;52.066;5.358;2022-09-09T10:02:36;14.07;;;3.38;;
44446;SDS011;30152;52.066;5.358;2022-09-09T10:05:04;12.73;;;3.28;;
44446;SDS011;30152;52.066;5.358;2022-09-09T10:07:31;11.95;;;2.75;;
44446;SDS011;30152;52.066;5.358;2022-09-09T10:09:58;10.77;;;2.55;;
44446;SDS011;30152;52.066;5.358;2022-09-09T10:12:28;13.18;;;3.28;;
44446;SDS011;30152;52.066;5.358;2022-09-09T10:15:07;20.15;;;3.30;;
44446;SDS011;30152;52.066;5.358;2022-09-09T10:17:47;10.68;;;2.50;;
44446;SDS011;30152;52.066;5.358;2022-09-09T10:20:29;17.63;;;3.38;;
44446;SDS011;30152;52.066;5.358;2022-09-09T10:23:11;14.68;;;2.60;;
44446;SDS011;30152;52.066;5.358;2022-09-09T10:33:17;17.88;;;3.42;;
44446;SDS011;30152;52.066;5.358;2022-09-09T10:46:23;13.25;;;4.10;;
44446;SDS011;30152;52.066;5.358;2022-09-09T10:49:03;16.58;;;4.30;;
44446;SDS011;30152;52.066;5.358;2022-09-09T10:54:39;12.85;;;3.97;;
44446;SDS011;30152;52.066;5.358;2022-09-09T10:57:10;9.30;;;4.32;;
44446;SDS011;30152;52.066;5.358;2022-09-09T10:59:38;14.88;;;4.95;;
44446;SDS011;30152;52.066;5.358;2022-09-09T11:04:37;12.35;;;4.68;;
44446;SDS011;30152;52.066;5.358;2022-09-09T11:07:07;10.50;;;3.45;;
44446;SDS011;30152;52.066;5.358;2022-09-09T11:09:36;12.80;;;3.53;;
44446;SDS011;30152;52.066;5.358;2022-09-09T11:12:04;12.27;;;4.07;;
44446;SDS011;30152;52.066;5.358;2022-09-09T11:14:32;13.32;;;3.40;;
44446;SDS011;30152;52.066;5.358;2022-09-09T11:17:02;10.93;;;3.17;;
44446;SDS011;30152;52.066;5.358;2022-09-09T11:22:05;12.77;;;3.80;;
44446;SDS011;30152;52.066;5.358;2022-09-09T11:24:35;10.68;;;3.47;;
44446;SDS011;30152;52.066;5.358;2022-09-09T11:27:09;13.75;;;3.38;;
44446;SDS011;30152;52.066;5.358;2022-09-09T11:29:52;11.25;;;3.22;;
44446;SDS011;30152;52.066;5.358;2022-09-09T11:32:28;9.88;;;2.58;;
44446;SDS011;30152;52.066;5.358;2022-09-09T11:37:51;11.55;;;3.13;;
44446;SDS011;30152;52.066;5.358;2022-09-09T11:40:24;11.48;;;2.78;;
44446;SDS011;30152;52.066;5.358;2022-09-09T11:43:04;12.45;;;2.75;;
44446;SDS011;30152;52.066;5.358;2022-09-09T11:45:31;14.75;;;2.72;;
44446;SDS011;30152;52.066;5.358;2022-09-09T11:47:59;10.00;;;2.80;;
44446;SDS011;30152;52.066;5.358;2022-09-09T11:53:02;15.43;;;4.18;;
44446;SDS011;30152;52.066;5.358;2022-09-09T11:55:29;15.48;;;4.22;;
44446;SDS011;30152;52.066;5.358;2022-09-09T11:58:01;10.23;;;3.92;;
44446;SDS011;30152;52.066;5.358;2022-09-09T12:00:38;12.10;;;3.70;;
44446;SDS011;30152;52.066;5.358;2022-09-09T12:03:05;16.50;;;4.20;;
44446;SDS011;30152;52.066;5.358;2022-09-09T12:05:38;13.07;;;4.55;;
44446;SDS011;30152;52.066;5.358;2022-09-09T12:10:34;17.38;;;4.63;;
44446;SDS011;30152;52.066;5.358;2022-09-09T12:15:48;11.27;;;3.92;;
44446;SDS011;30152;52.066;5.358;2022-09-09T12:18:14;13.68;;;4.78;;
44446;SDS011;30152;52.066;5.358;2022-09-09T12:26:04;14.32;;;4.68;;
44446;SDS011;30152;52.066;5.358;2022-09-09T12:28:43;11.45;;;4.82;;
44446;SDS011;30152;52.066;5.358;2022-09-09T12:34:02;12.75;;;4.82;;
44446;SDS011;30152;52.066;5.358;2022-09-09T12:38:56;13.63;;;4.45;;
44446;SDS011;30152;52.066;5.358;2022-09-09T12:41:25;13.50;;;4.80;;
44446;SDS011;30152;52.066;5.358;2022-09-09T12:43:51;11.85;;;4.65;;
44446;SDS011;30152;52.066;5.358;2022-09-09T12:46:31;11.15;;;3.95;;
44446;SDS011;30152;52.066;5.358;2022-09-09T12:48:58;10.85;;;4.40;;
44446;SDS011;30152;52.066;5.358;2022-09-09T12:51:26;10.77;;;3.78;;
44446;SDS011;30152;52.066;5.358;2022-09-09T12:53:52;9.70;;;3.78;;
44446;SDS011;30152;52.066;5.358;2022-09-09T12:56:19;10.57;;;3.78;;
44446;SDS011;30152;52.066;5.358;2022-09-09T12:58:46;12.57;;;3.90;;
44446;SDS011;30152;52.066;5.358;2022-09-09T13:01:27;10.20;;;3.10;;
44446;SDS011;30152;52.066;5.358;2022-09-09T13:03:54;8.55;;;3.03;;
44446;SDS011;30152;52.066;5.358;2022-09-09T13:06:23;13.35;;;3.55;;
44446;SDS011;30152;52.066;5.358;2022-09-09T13:08:51;10.68;;;2.85;;
44446;SDS011;30152;52.066;5.358;2022-09-09T13:11:19;9.48;;;3.25;;
44446;SDS011;30152;52.066;5.358;2022-09-09T13:13:51;8.27;;;3.08;;
44446;SDS011;30152;52.066;5.358;2022-09-09T13:16:19;12.25;;;3.58;;
44446;SDS011;30152;52.066;5.358;2022-09-09T13:18:46;13.75;;;3.90;;
44446;SDS011;30152;52.066;5.358;2022-09-09T13:21:12;12.85;;;4.28;;
44446;SDS011;30152;52.066;5.358;2022-09-09T13:23:39;9.43;;;3.45;;
44446;SDS011;30152;52.066;5.358;2022-09-09T13:26:21;12.85;;;3.80;;
44446;SDS011;30152;52.066;5.358;2022-09-09T13:28:48;12.27;;;3.50;;
44446;SDS011;30152;52.066;5.358;2022-09-09T13:31:24;8.45;;;3.55;;
44446;SDS011;30152;52.066;5.358;2022-09-09T13:33:53;12.13;;;3.33;;
44446;SDS011;30152;52.066;5.358;2022-09-09T13:36:29;8.95;;;3.10;;
44446;SDS011;30152;52.066;5.358;2022-09-09T13:38:56;7.97;;;3.20;;
44446;SDS011;30152;52.066;5.358;2022-09-09T13:41:25;11.27;;;3.33;;
44446;SDS011;30152;52.066;5.358;2022-09-09T13:43:55;9.63;;;3.17;;
44446;SDS011;30152;52.066;5.358;2022-09-09T13:48:57;9.73;;;2.85;;
44446;SDS011;30152;52.066;5.358;2022-09-09T13:51:29;10.60;;;3.03;;
44446;SDS011;30152;52.066;5.358;2022-09-09T13:53:56;9.98;;;3.55;;
44446;SDS011;30152;52.066;5.358;2022-09-09T13:56:22;13.27;;;3.42;;
44446;SDS011;30152;52.066;5.358;2022-09-09T13:58:48;11.95;;;3.28;;
44446;SDS011;30152;52.066;5.358;2022-09-09T14:01:14;11.57;;;3.22;;
44446;SDS011;30152;52.066;5.358;2022-09-09T14:03:40;14.50;;;3.30;;
44446;SDS011;30152;52.066;5.358;2022-09-09T14:06:06;10.45;;;3.90;;
44446;SDS011;30152;52.066;5.358;2022-09-09T14:08:32;8.77;;;2.70;;
44446;SDS011;30152;52.066;5.358;2022-09-09T14:11:02;9.82;;;3.10;;
44446;SDS011;30152;52.066;5.358;2022-09-09T14:13:28;8.75;;;3.25;;
44446;SDS011;30152;52.066;5.358;2022-09-09T14:15:54;7.85;;;3.25;;
44446;SDS011;30152;52.066;5.358;2022-09-09T14:18:20;14.90;;;3.40;;
44446;SDS011;30152;52.066;5.358;2022-09-09T14:20:48;8.98;;;2.80;;
44446;SDS011;30152;52.066;5.358;2022-09-09T14:23:15;9.18;;;3.35;;
44446;SDS011;30152;52.066;5.358;2022-09-09T14:25:42;11.18;;;4.07;;
44446;SDS011;30152;52.066;5.358;2022-09-09T14:28:11;8.90;;;3.10;;
44446;SDS011;30152;52.066;5.358;2022-09-09T14:30:41;13.70;;;3.90;;
44446;SDS011;30152;52.066;5.358;2022-09-09T14:33:08;10.65;;;4.28;;
44446;SDS011;30152;52.066;5.358;2022-09-09T14:35:35;12.82;;;4.45;;
44446;SDS011;30152;52.066;5.358;2022-09-09T14:38:02;14.57;;;4.70;;
44446;SDS011;30152;52.066;5.358;2022-09-09T14:40:28;12.18;;;3.85;;
44446;SDS011;30152;52.066;5.358;2022-09-09T14:42:54;7.75;;;4.47;;
44446;SDS011;30152;52.066;5.358;2022-09-09T14:45:21;10.35;;;4.40;;
44446;SDS011;30152;52.066;5.358;2022-09-09T14:47:49;12.60;;;4.88;;
44446;SDS011;30152;52.066;5.358;2022-09-09T14:50:15;9.50;;;4.32;;
44446;SDS011;30152;52.066;5.358;2022-09-09T14:52:41;8.73;;;3.90;;
44446;SDS011;30152;52.066;5.358;2022-09-09T14:55:07;14.68;;;6.22;;
44446;SDS011;30152;52.066;5.358;2022-09-09T14:57:33;16.13;;;6.20;;
44446;SDS011;30152;52.066;5.358;2022-09-09T15:00:00;14.98;;;5.60;;
44446;SDS011;30152;52.066;5.358;2022-09-09T15:02:26;12.80;;;4.80;;
44446;SDS011;30152;52.066;5.358;2022-09-09T15:04:54;13.35;;;5.07;;
44446;SDS011;30152;52.066;5.358;2022-09-09T15:07:23;9.88;;;3.47;;
44446;SDS011;30152;52.066;5.358;2022-09-09T15:09:49;7.30;;;2.20;;
44446;SDS011;30152;52.066;5.358;2022-09-09T15:12:15;6.70;;;1.70;;
44446;SDS011;30152;52.066;5.358;2022-09-09T15:14:44;4.72;;;1.48;;
44446;SDS011;30152;52.066;5.358;2022-09-09T15:17:10;7.68;;;1.90;;
44446;SDS011;30152;52.066;5.358;2022-09-09T15:19:37;6.15;;;1.85;;
44446;SDS011;30152;52.066;5.358;2022-09-09T15:22:04;7.00;;;1.90;;
44446;SDS011;30152;52.066;5.358;2022-09-09T15:24:33;10.52;;;1.70;;
44446;SDS011;30152;52.066;5.358;2022-09-09T15:26:59;7.10;;;1.40;;
44446;SDS011;30152;52.066;5.358;2022-09-09T15:29:25;8.35;;;2.17;;
44446;SDS011;30152;52.066;5.358;2022-09-09T15:31:52;5.60;;;1.75;;
44446;SDS011;30152;52.066;5.358;2022-09-09T15:34:19;7.50;;;1.60;;
44446;SDS011;30152;52.066;5.358;2022-09-09T15:36:45;5.82;;;1.70;;
44446;SDS011;30152;52.066;5.358;2022-09-09T15:39:12;5.65;;;1.98;;
44446;SDS011;30152;52.066;5.358;2022-09-09T15:41:40;5.47;;;1.88;;
44446;SDS011;30152;52.066;5.358;2022-09-09T15:44:06;6.43;;;1.70;;
44446;SDS011;30152;52.066;5.358;2022-09-09T15:49:05;9.38;;;2.30;;
44446;SDS011;30152;52.066;5.358;2022-09-09T15:51:31;5.78;;;1.77;;
44446;SDS011;30152;52.066;5.358;2022-09-09T15:53:58;8.55;;;1.90;;
44446;SDS011;30152;52.066;5.358;2022-09-09T15:56:25;7.55;;;2.50;;
44446;SDS011;30152;52.066;5.358;2022-09-09T15:58:52;6.82;;;1.90;;
44446;SDS011;30152;52.066;5.358;2022-09-09T16:01:18;5.60;;;1.88;;
44446;SDS011;30152;52.066;5.358;2022-09-09T16:03:44;7.03;;;1.50;;
44446;SDS011;30152;52.066;5.358;2022-09-09T16:06:11;6.05;;;1.70;;
44446;SDS011;30152;52.066;5.358;2022-09-09T16:08:39;6.38;;;1.40;;
44446;SDS011;30152;52.066;5.358;2022-09-09T16:11:06;4.78;;;1.67;;
44446;SDS011;30152;52.066;5.358;2022-09-09T16:13:34;6.50;;;1.63;;
44446;SDS011;30152;52.066;5.358;2022-09-09T16:16:00;6.85;;;1.90;;
44446;SDS011;30152;52.066;5.358;2022-09-09T16:18:26;7.22;;;1.83;;
44446;SDS011;30152;52.066;5.358;2022-09-09T16:20:58;6.97;;;1.70;;
44446;SDS011;30152;52.066;5.358;2022-09-09T16:23:24;7.03;;;2.20;;
44446;SDS011;30152;52.066;5.358;2022-09-09T16:25:56;9.55;;;2.28;;
44446;SDS011;30152;52.066;5.358;2022-09-09T16:28:22;8.98;;;1.98;;
44446;SDS011;30152;52.066;5.358;2022-09-09T16:30:48;5.20;;;1.88;;
44446;SDS011;30152;52.066;5.358;2022-09-09T16:33:14;10.70;;;2.42;;
44446;SDS011;30152;52.066;5.358;2022-09-09T16:35:40;5.35;;;1.90;;
44446;SDS011;30152;52.066;5.358;2022-09-09T16:38:06;6.22;;;2.08;;
44446;SDS011;30152;52.066;5.358;2022-09-09T16:40:36;6.05;;;2.05;;
44446;SDS011;30152;52.066;5.358;2022-09-09T16:43:02;6.85;;;1.95;;
44446;SDS011;30152;52.066;5.358;2022-09-09T16:45:28;9.63;;;2.25;;
44446;SDS011;30152;52.066;5.358;2022-09-09T16:47:54;5.85;;;2.20;;
44446;SDS011;30152;52.066;5.358;2022-09-09T16:50:21;8.20;;;2.60;;
44446;SDS011;30152;52.066;5.358;2022-09-09T16:52:47;11.07;;;2.55;;
44446;SDS011;30152;52.066;5.358;2022-09-09T16:55:14;6.80;;;2.15;;
44446;SDS011;30152;52.066;5.358;2022-09-09T16:57:40;8.55;;;2.80;;
44446;SDS011;30152;52.066;5.358;2022-09-09T17:00:06;7.10;;;2.45;;
44446;SDS011;30152;52.066;5.358;2022-09-09T17:02:33;7.28;;;2.50;;
44446;SDS011;30152;52.066;5.358;2022-09-09T17:04:59;11.70;;;3.10;;
44446;SDS011;30152;52.066;5.358;2022-09-09T17:07:25;8.50;;;2.60;;
44446;SDS011;30152;52.066;5.358;2022-09-09T17:09:51;8.13;;;2.92;;
44446;SDS011;30152;52.066;5.358;2022-09-09T17:12:19;8.57;;;2.83;;
44446;SDS011;30152;52.066;5.358;2022-09-09T17:14:46;9.93;;;2.97;;
44446;SDS011;30152;52.066;5.358;2022-09-09T17:17:12;11.02;;;3.00;;
44446;SDS011;30152;52.066;5.358;2022-09-09T17:19:38;11.48;;;3.25;;
44446;SDS011;30152;52.066;5.358;2022-09-09T17:22:04;8.77;;;3.10;;
44446;SDS011;30152;52.066;5.358;2022-09-09T17:24:30;8.77;;;3.13;;
44446;SDS011;30152;52.066;5.358;2022-09-09T17:26:59;10.75;;;3.10;;
44446;SDS011;30152;52.066;5.358;2022-09-09T17:29:26;11.43;;;3.22;;
44446;SDS011;30152;52.066;5.358;2022-09-09T17:31:52;11.13;;;4.03;;
44446;SDS011;30152;52.066;5.358;2022-09-09T17:34:19;14.43;;;3.97;;
44446;SDS011;30152;52.066;5.358;2022-09-09T17:36:44;8.43;;;3.78;;
44446;SDS011;30152;52.066;5.358;2022-09-09T17:39:10;7.32;;;2.58;;
44446;SDS011;30152;52.066;5.358;2022-09-09T17:41:37;9.27;;;3.20;;
44446;SDS011;30152;52.066;5.358;2022-09-09T17:44:03;8.65;;;2.67;;
44446;SDS011;30152;52.066;5.358;2022-09-09T17:46:30;6.55;;;2.78;;
44446;SDS011;30152;52.066;5.358;2022-09-09T17:48:59;10.10;;;3.92;;
44446;SDS011;30152;52.066;5.358;2022-09-09T17:51:26;10.88;;;3.53;;
44446;SDS011;30152;52.066;5.358;2022-09-09T17:53:54;8.40;;;2.97;;
44446;SDS011;30152;52.066;5.358;2022-09-09T17:56:22;11.20;;;2.42;;
44446;SDS011;30152;52.066;5.358;2022-09-09T17:58:49;8.82;;;2.80;;
44446;SDS011;30152;52.066;5.358;2022-09-09T18:01:19;8.95;;;2.97;;
44446;SDS011;30152;52.066;5.358;2022-09-09T18:03:45;11.75;;;2.92;;
44446;SDS011;30152;52.066;5.358;2022-09-09T18:06:13;10.48;;;3.08;;
44446;SDS011;30152;52.066;5.358;2022-09-09T18:08:40;8.57;;;2.88;;
44446;SDS011;30152;52.066;5.358;2022-09-09T18:11:07;6.28;;;2.38;;
44446;SDS011;30152;52.066;5.358;2022-09-09T18:13:34;7.55;;;3.28;;
44446;SDS011;30152;52.066;5.358;2022-09-09T18:16:00;14.82;;;3.80;;
44446;SDS011;30152;52.066;5.358;2022-09-09T18:18:27;8.07;;;2.83;;
44446;SDS011;30152;52.066;5.358;2022-09-09T18:21:00;8.98;;;3.60;;
44446;SDS011;30152;52.066;5.358;2022-09-09T18:23:27;10.00;;;3.23;;
44446;SDS011;30152;52.066;5.358;2022-09-09T18:25:53;8.07;;;3.17;;
44446;SDS011;30152;52.066;5.358;2022-09-09T18:28:20;11.48;;;3.22;;
44446;SDS011;30152;52.066;5.358;2022-09-09T18:30:47;11.65;;;3.70;;
44446;SDS011;30152;52.066;5.358;2022-09-09T18:33:13;13.38;;;3.65;;
44446;SDS011;30152;52.066;5.358;2022-09-09T18:35:40;13.18;;;4.50;;
44446;SDS011;30152;52.066;5.358;2022-09-09T18:38:07;10.73;;;4.97;;
44446;SDS011;30152;52.066;5.358;2022-09-09T18:40:33;9.43;;;4.90;;
44446;SDS011;30152;52.066;5.358;2022-09-09T18:42:59;13.38;;;4.68;;
44446;SDS011;30152;52.066;5.358;2022-09-09T18:45:25;13.98;;;4.80;;
44446;SDS011;30152;52.066;5.358;2022-09-09T18:47:51;13.82;;;5.57;;
44446;SDS011;30152;52.066;5.358;2022-09-09T18:50:17;13.40;;;5.20;;
44446;SDS011;30152;52.066;5.358;2022-09-09T18:52:43;12.90;;;5.20;;
44446;SDS011;30152;52.066;5.358;2022-09-09T18:55:09;13.82;;;5.97;;
44446;SDS011;30152;52.066;5.358;2022-09-09T18:57:35;10.02;;;4.95;;
44446;SDS011;30152;52.066;5.358;2022-09-09T19:00:02;13.07;;;5.47;;
44446;SDS011;30152;52.066;5.358;2022-09-09T19:02:29;14.55;;;6.00;;
44446;SDS011;30152;52.066;5.358;2022-09-09T19:04:55;15.98;;;6.22;;
44446;SDS011;30152;52.066;5.358;2022-09-09T19:07:21;11.60;;;5.68;;
44446;SDS011;30152;52.066;5.358;2022-09-09T19:09:47;12.68;;;6.18;;
44446;SDS011;30152;52.066;5.358;2022-09-09T19:12:13;13.32;;;5.97;;
44446;SDS011;30152;52.066;5.358;2022-09-09T19:14:39;12.45;;;5.68;;
44446;SDS011;30152;52.066;5.358;2022-09-09T19:17:05;11.10;;;5.97;;
44446;SDS011;30152;52.066;5.358;2022-09-09T19:19:31;12.68;;;6.47;;
44446;SDS011;30152;52.066;5.358;2022-09-09T19:21:58;9.75;;;5.40;;
44446;SDS011;30152;52.066;5.358;2022-09-09T19:24:28;16.40;;;7.13;;
44446;SDS011;30152;52.066;5.358;2022-09-09T19:26:56;10.35;;;5.78;;
44446;SDS011;30152;52.066;5.358;2022-09-09T19:29:23;15.48;;;7.20;;
44446;SDS011;30152;52.066;5.358;2022-09-09T19:31:50;13.30;;;6.60;;
44446;SDS011;30152;52.066;5.358;2022-09-09T19:34:17;15.75;;;7.05;;
44446;SDS011;30152;52.066;5.358;2022-09-09T19:36:44;12.65;;;6.25;;
44446;SDS011;30152;52.066;5.358;2022-09-09T19:39:11;13.82;;;6.40;;
44446;SDS011;30152;52.066;5.358;2022-09-09T19:41:37;12.30;;;6.47;;
44446;SDS011;30152;52.066;5.358;2022-09-09T19:44:04;11.07;;;6.85;;
44446;SDS011;30152;52.066;5.358;2022-09-09T19:46:32;14.45;;;6.60;;
44446;SDS011;30152;52.066;5.358;2022-09-09T19:48:59;15.77;;;7.00;;
44446;SDS011;30152;52.066;5.358;2022-09-09T19:51:26;14.45;;;7.20;;
44446;SDS011;30152;52.066;5.358;2022-09-09T19:53:54;14.93;;;7.95;;
44446;SDS011;30152;52.066;5.358;2022-09-09T19:56:20;14.40;;;7.32;;
44446;SDS011;30152;52.066;5.358;2022-09-09T19:58:50;15.02;;;7.95;;
44446;SDS011;30152;52.066;5.358;2022-09-09T20:01:26;13.65;;;7.40;;
44446;SDS011;30152;52.066;5.358;2022-09-09T20:03:52;19.88;;;7.93;;
44446;SDS011;30152;52.066;5.358;2022-09-09T20:06:19;21.85;;;9.30;;
44446;SDS011;30152;52.066;5.358;2022-09-09T20:08:47;16.92;;;8.10;;
44446;SDS011;30152;52.066;5.358;2022-09-09T20:11:14;21.70;;;8.60;;
44446;SDS011;30152;52.066;5.358;2022-09-09T20:13:40;20.35;;;8.98;;
44446;SDS011;30152;52.066;5.358;2022-09-09T20:16:07;17.27;;;8.73;;
44446;SDS011;30152;52.066;5.358;2022-09-09T20:18:35;16.70;;;8.02;;
44446;SDS011;30152;52.066;5.358;2022-09-09T20:21:03;14.23;;;7.40;;
44446;SDS011;30152;52.066;5.358;2022-09-09T20:23:29;15.93;;;8.35;;
44446;SDS011;30152;52.066;5.358;2022-09-09T20:25:59;14.00;;;7.57;;
44446;SDS011;30152;52.066;5.358;2022-09-09T20:28:28;12.77;;;7.63;;
44446;SDS011;30152;52.066;5.358;2022-09-09T20:30:54;14.10;;;7.90;;
44446;SDS011;30152;52.066;5.358;2022-09-09T20:33:20;16.15;;;8.13;;
44446;SDS011;30152;52.066;5.358;2022-09-09T20:35:46;14.60;;;7.95;;
44446;SDS011;30152;52.066;5.358;2022-09-09T20:38:12;20.75;;;8.73;;
44446;SDS011;30152;52.066;5.358;2022-09-09T20:40:38;19.75;;;8.65;;
44446;SDS011;30152;52.066;5.358;2022-09-09T20:43:06;15.35;;;8.50;;
44446;SDS011;30152;52.066;5.358;2022-09-09T20:45:35;17.35;;;8.15;;
44446;SDS011;30152;52.066;5.358;2022-09-09T20:48:07;19.45;;;9.48;;
44446;SDS011;30152;52.066;5.358;2022-09-09T20:50:34;18.33;;;9.50;;
44446;SDS011;30152;52.066;5.358;2022-09-09T20:53:00;20.27;;;9.80;;
44446;SDS011;30152;52.066;5.358;2022-09-09T20:55:27;19.52;;;9.93;;
44446;SDS011;30152;52.066;5.358;2022-09-09T20:57:52;20.50;;;10.40;;
44446;SDS011;30152;52.066;5.358;2022-09-09T21:00:22;18.77;;;9.77;;
44446;SDS011;30152;52.066;5.358;2022-09-09T21:02:48;19.40;;;9.85;;
44446;SDS011;30152;52.066;5.358;2022-09-09T21:05:14;21.67;;;11.05;;
44446;SDS011;30152;52.066;5.358;2022-09-09T21:07:43;21.98;;;10.95;;
44446;SDS011;30152;52.066;5.358;2022-09-09T21:10:10;18.73;;;10.70;;
44446;SDS011;30152;52.066;5.358;2022-09-09T21:12:36;19.90;;;11.40;;
44446;SDS011;30152;52.066;5.358;2022-09-09T21:15:02;25.60;;;13.68;;
44446;SDS011;30152;52.066;5.358;2022-09-09T21:17:28;23.70;;;12.57;;
44446;SDS011;30152;52.066;5.358;2022-09-09T21:19:54;24.45;;;13.05;;
44446;SDS011;30152;52.066;5.358;2022-09-09T21:22:21;21.23;;;14.05;;
44446;SDS011;30152;52.066;5.358;2022-09-09T21:24:47;23.10;;;14.00;;
44446;SDS011;30152;52.066;5.358;2022-09-09T21:27:12;23.67;;;15.20;;
